Terminal Aerodrome Forecast
Issued by NWS Quad Cities IA IL

Home | Current Version | Previous Version | Text Only | Print | Product List | Glossary On
Versions: 1 2 3 4 5 6 7 8 9 10 11 12 13 14 15 16 17 18 19 20 21 22 23 24 25 26 27
818
FTUS43 KDVN 181912 AAD
TAFDBQ
TAF AMD
KDBQ 181912Z 1819/1918 04014KT 5SM -FZDZ BR OVC007
     FM182100 02010KT 3SM -SN BR OVC007
     FM190000 35011KT 2SM -SN BR OVC006
     FM190600 35010KT 6SM -SN BR SCT006 OVC012
     FM190900 35009KT P6SM SCT012 BKN020
     FM191200 35009KT P6SM SCT020=

USA.gov is the U.S. government's official web portal to all federal, state and local government web resources and services.